createdAt,value
2023-05-20T00:02:12.261Z,16.66
2023-05-20T00:05:18.043Z,16.64
2023-05-20T00:08:23.977Z,16.62
2023-05-20T00:11:31.456Z,16.58
2023-05-20T00:14:37.297Z,16.56
2023-05-20T00:17:43.213Z,16.53
2023-05-20T00:20:50.493Z,16.49
2023-05-20T00:23:56.942Z,16.47
2023-05-20T00:27:02.826Z,16.43
2023-05-20T00:30:09.822Z,16.40
2023-05-20T00:33:15.654Z,16.38
2023-05-20T00:36:21.923Z,16.36
2023-05-20T00:39:28.695Z,16.33
2023-05-20T00:42:39.535Z,16.30
2023-05-20T00:45:46.333Z,16.27
2023-05-20T00:48:58.174Z,16.24
2023-05-20T00:52:04.795Z,16.23
2023-05-20T00:55:11.643Z,16.21
2023-05-20T00:58:16.199Z,16.18
2023-05-20T01:01:22.223Z,16.16
2023-05-20T01:04:28.706Z,16.16
2023-05-20T01:07:34.507Z,16.14
2023-05-20T01:10:39.321Z,16.12
2023-05-20T01:13:51.196Z,16.08
2023-05-20T01:16:56.754Z,16.04
2023-05-20T01:20:03.645Z,16.03
2023-05-20T01:23:11.399Z,15.99
2023-05-20T01:26:19.902Z,15.95
2023-05-20T01:29:26.560Z,15.91
2023-05-20T01:32:38.990Z,15.88
2023-05-20T01:35:44.304Z,15.87
2023-05-20T01:38:50.636Z,15.85
2023-05-20T01:41:57.421Z,15.83
2023-05-20T01:45:02.838Z,15.82
2023-05-20T01:48:09.755Z,15.79
2023-05-20T01:51:15.735Z,15.78
2023-05-20T01:54:22.383Z,15.77
2023-05-20T01:57:28.491Z,15.73
2023-05-20T02:00:35.774Z,15.69
2023-05-20T02:03:42.521Z,15.65
2023-05-20T02:06:48.995Z,15.61
2023-05-20T02:09:56.208Z,15.55
2023-05-20T02:13:02.362Z,15.51
2023-05-20T02:16:07.433Z,15.47
2023-05-20T02:19:13.072Z,15.45
2023-05-20T02:22:19.025Z,15.40
2023-05-20T02:25:24.897Z,15.40
2023-05-20T02:28:24.626Z,15.38
2023-05-20T02:31:32.138Z,15.35
2023-05-20T02:34:37.760Z,15.33
2023-05-20T02:37:42.473Z,15.32
2023-05-20T02:40:48.982Z,15.31
2023-05-20T02:43:54.767Z,15.31
2023-05-20T02:47:00.134Z,15.32
2023-05-20T02:50:05.897Z,15.33
2023-05-20T02:53:11.366Z,15.37
2023-05-20T02:56:17.993Z,15.40
2023-05-20T02:59:23.590Z,15.41
2023-05-20T03:02:30.166Z,15.45
2023-05-20T03:05:37.300Z,15.50
2023-05-20T03:08:42.555Z,15.53
2023-05-20T03:11:48.948Z,15.57
2023-05-20T03:14:54.910Z,15.62
2023-05-20T03:18:01.290Z,15.67
2023-05-20T03:21:07.693Z,15.72
2023-05-20T03:24:13.170Z,15.78
2023-05-20T03:27:19.664Z,15.83
2023-05-20T03:30:28.433Z,15.89
2023-05-20T03:33:34.314Z,15.95
2023-05-20T03:36:39.799Z,16.02
2023-05-20T03:39:44.751Z,16.08
2023-05-20T03:42:52.451Z,16.14
2023-05-20T03:45:58.734Z,16.19
2023-05-20T03:49:03.963Z,16.25
2023-05-20T03:52:10.734Z,16.34
2023-05-20T03:55:16.208Z,16.44
2023-05-20T03:58:21.589Z,16.53
2023-05-20T04:01:31.490Z,16.62
2023-05-20T04:04:38.415Z,16.72
2023-05-20T04:07:45.782Z,16.83
2023-05-20T04:10:52.114Z,16.94
2023-05-20T04:14:11.340Z,17.03
2023-05-20T04:17:21.310Z,17.11
2023-05-20T04:20:27.671Z,17.23
2023-05-20T04:23:37.002Z,17.32
2023-05-20T04:26:42.772Z,17.40
2023-05-20T04:29:50.709Z,17.51
2023-05-20T04:32:59.782Z,17.61
2023-05-20T04:36:06.310Z,17.72
2023-05-20T04:39:12.724Z,17.82
2023-05-20T04:42:21.220Z,17.92
2023-05-20T04:45:30.327Z,18.02
2023-05-20T04:48:35.833Z,18.12
2023-05-20T04:51:42.559Z,18.21
2023-05-20T04:54:50.234Z,18.28
2023-05-20T04:57:57.605Z,18.39
2023-05-20T05:01:03.891Z,18.46
2023-05-20T05:04:09.387Z,18.55
2023-05-20T05:07:16.958Z,18.65
2023-05-20T05:10:23.012Z,18.73
2023-05-20T05:13:28.917Z,18.83
2023-05-20T05:16:35.271Z,18.92
2023-05-20T05:19:41.254Z,19.00
2023-05-20T05:22:48.696Z,19.07
2023-05-20T05:25:55.027Z,19.17
2023-05-20T05:29:00.413Z,19.26
2023-05-20T05:32:05.478Z,19.38
2023-05-20T05:35:10.640Z,19.51
2023-05-20T05:38:16.727Z,19.60
2023-05-20T05:41:22.234Z,19.68
2023-05-20T05:44:27.498Z,19.74
2023-05-20T05:47:35.110Z,19.82
2023-05-20T05:50:42.301Z,19.92
2023-05-20T05:53:48.889Z,20.02
2023-05-20T05:56:54.539Z,20.13
2023-05-20T06:00:01.822Z,20.20
2023-05-20T06:03:19.247Z,20.27
2023-05-20T06:06:26.544Z,20.34
2023-05-20T06:09:32.512Z,20.38
2023-05-20T06:12:38.919Z,20.45
2023-05-20T06:15:46.046Z,20.53
2023-05-20T06:18:52.698Z,20.63
2023-05-20T06:21:59.670Z,20.72
2023-05-20T06:25:08.369Z,20.82
2023-05-20T06:28:15.617Z,20.91
2023-05-20T06:31:22.048Z,21.00
2023-05-20T06:34:30.805Z,21.11
2023-05-20T06:37:36.672Z,21.22
2023-05-20T06:40:43.594Z,21.29
2023-05-20T06:43:52.591Z,21.38
2023-05-20T06:47:15.862Z,21.45
2023-05-20T06:50:24.445Z,21.51
2023-05-20T06:53:30.701Z,21.57
2023-05-20T06:56:37.874Z,21.67
2023-05-20T06:59:44.577Z,21.77
2023-05-20T07:02:53.334Z,21.85
2023-05-20T07:06:00.681Z,21.93
2023-05-20T07:09:07.405Z,22.06
2023-05-20T07:12:15.371Z,22.17
2023-05-20T07:15:22.982Z,22.23
2023-05-20T07:18:29.335Z,22.33
2023-05-20T07:21:35.176Z,22.41
2023-05-20T07:24:57.771Z,22.52
2023-05-20T07:28:05.909Z,22.60
2023-05-20T07:31:12.826Z,22.68
2023-05-20T07:34:19.442Z,22.73
2023-05-20T07:37:26.208Z,22.79
2023-05-20T07:40:33.848Z,22.88
2023-05-20T07:43:41.517Z,22.94
2023-05-20T07:46:49.450Z,22.97
2023-05-20T07:49:55.855Z,23.01
2023-05-20T07:53:03.103Z,23.10
2023-05-20T07:56:10.188Z,23.19
2023-05-20T07:59:16.959Z,23.30
2023-05-20T08:02:24.074Z,23.37
2023-05-20T08:05:30.491Z,23.40
2023-05-20T08:08:41.675Z,23.47
2023-05-20T08:11:49.160Z,23.56
2023-05-20T08:14:54.420Z,23.68
2023-05-20T08:18:02.021Z,23.80
2023-05-20T08:21:09.247Z,23.87
2023-05-20T08:24:15.680Z,23.94
2023-05-20T08:27:22.100Z,24.02
2023-05-20T08:30:27.929Z,24.09
2023-05-20T08:33:34.342Z,24.20
2023-05-20T08:36:40.292Z,24.28
2023-05-20T08:39:46.956Z,24.35
2023-05-20T08:43:02.018Z,24.46
2023-05-20T08:46:09.656Z,24.56
2023-05-20T08:49:14.879Z,24.65
2023-05-20T08:52:20.678Z,24.72
2023-05-20T08:55:33.657Z,24.77
2023-05-20T08:58:43.182Z,24.80
2023-05-20T09:01:51.676Z,24.92
2023-05-20T09:05:00.793Z,25.01
2023-05-20T09:08:06.817Z,25.10
2023-05-20T09:11:12.960Z,25.18
2023-05-20T09:14:20.086Z,25.27
2023-05-20T09:17:27.644Z,25.35
2023-05-20T09:20:32.195Z,25.43
2023-05-20T09:23:37.639Z,25.49
2023-05-20T09:26:43.272Z,25.53
2023-05-20T09:29:51.226Z,25.61
2023-05-20T09:32:58.511Z,25.66
2023-05-20T09:36:05.983Z,25.76
2023-05-20T09:39:14.926Z,25.88
2023-05-20T09:42:42.684Z,25.91
2023-05-20T09:45:49.473Z,25.92
2023-05-20T09:48:57.197Z,25.94
2023-05-20T09:52:04.767Z,25.94
2023-05-20T09:55:03.085Z,26.02
2023-05-20T09:58:12.449Z,26.04
2023-05-20T10:01:20.820Z,26.15
2023-05-20T10:04:26.655Z,26.25
2023-05-20T10:08:05.088Z,26.40
2023-05-20T10:11:22.092Z,26.53
2023-05-20T10:14:55.899Z,26.58
2023-05-20T10:18:31.624Z,26.67
2023-05-20T10:21:38.627Z,26.73
2023-05-20T10:24:53.781Z,26.78
2023-05-20T10:28:00.912Z,26.87
2023-05-20T10:31:07.430Z,26.95
2023-05-20T10:34:14.896Z,26.98
2023-05-20T10:37:16.014Z,27.03
2023-05-20T10:40:23.613Z,27.14
2023-05-20T10:43:37.096Z,27.24
2023-05-20T10:49:51.198Z,27.38
2023-05-20T10:52:56.318Z,27.44
2023-05-20T10:56:07.569Z,27.46
2023-05-20T10:59:15.277Z,27.50
2023-05-20T11:02:21.308Z,27.59
2023-05-20T11:05:27.871Z,27.73
2023-05-20T11:08:33.838Z,27.86
2023-05-20T11:11:38.577Z,27.97
2023-05-20T11:14:47.213Z,28.06
2023-05-20T11:17:56.250Z,28.16
2023-05-20T11:21:02.175Z,28.29
2023-05-20T11:24:07.546Z,28.32
2023-05-20T11:27:13.025Z,28.39
2023-05-20T11:30:19.989Z,28.44
2023-05-20T11:33:28.009Z,28.47
2023-05-20T11:36:35.786Z,28.62
2023-05-20T11:39:47.249Z,28.64
2023-05-20T11:42:53.804Z,28.61
2023-05-20T11:46:00.991Z,28.61
2023-05-20T11:49:09.236Z,28.61
2023-05-20T11:52:15.748Z,28.70
2023-05-20T11:55:28.768Z,28.79
2023-05-20T11:58:41.295Z,28.83
2023-05-20T12:01:51.805Z,28.92
2023-05-20T12:04:58.053Z,29.09
2023-05-20T12:08:06.412Z,29.08
2023-05-20T12:11:12.562Z,29.02
2023-05-20T12:14:21.020Z,28.73
2023-05-20T12:17:27.403Z,28.67
2023-05-20T12:20:36.293Z,28.64
2023-05-20T12:23:44.182Z,28.62
2023-05-20T12:26:50.755Z,28.75
2023-05-20T12:29:57.620Z,28.83
2023-05-20T12:33:04.792Z,28.80
2023-05-20T12:36:11.716Z,28.77
2023-05-20T12:39:17.843Z,28.70
2023-05-20T12:42:24.762Z,28.72
2023-05-20T12:45:29.823Z,28.77
2023-05-20T12:48:36.840Z,28.73
2023-05-20T12:51:44.916Z,28.65
2023-05-20T12:54:50.868Z,28.45
2023-05-20T12:57:57.944Z,28.14
2023-05-20T13:01:04.734Z,28.13
2023-05-20T13:04:10.772Z,28.25
2023-05-20T13:07:18.066Z,28.41
2023-05-20T13:10:25.643Z,28.47
2023-05-20T13:13:32.192Z,28.39
2023-05-20T13:16:39.511Z,28.19
2023-05-20T13:19:45.876Z,27.84
2023-05-20T13:22:52.525Z,27.56
2023-05-20T13:26:01.413Z,27.36
2023-05-20T13:29:07.642Z,27.25
2023-05-20T13:32:14.480Z,27.10
2023-05-20T13:35:24.285Z,27.11
2023-05-20T13:38:30.696Z,27.14
2023-05-20T13:41:37.583Z,27.22
2023-05-20T13:44:45.365Z,27.27
2023-05-20T13:47:51.265Z,27.12
2023-05-20T13:50:58.537Z,26.88
2023-05-20T13:54:04.036Z,26.73
2023-05-20T13:57:12.371Z,26.61
2023-05-20T14:00:18.957Z,26.52
2023-05-20T14:03:24.410Z,26.46
2023-05-20T14:06:33.138Z,26.42
2023-05-20T14:09:39.084Z,26.53
2023-05-20T14:12:45.613Z,26.66
2023-05-20T14:15:53.183Z,26.83
2023-05-20T14:19:01.179Z,27.02
2023-05-20T14:22:07.946Z,27.13
2023-05-20T14:25:14.230Z,27.16
2023-05-20T14:28:20.874Z,27.04
2023-05-20T14:31:27.276Z,26.88
2023-05-20T14:34:32.635Z,26.67
2023-05-20T14:37:37.934Z,26.51
2023-05-20T14:40:43.942Z,26.46
2023-05-20T14:43:50.375Z,26.39
2023-05-20T14:46:56.650Z,26.38
2023-05-20T14:50:05.610Z,26.57
2023-05-20T14:53:10.773Z,26.69
2023-05-20T14:56:18.269Z,26.69
2023-05-20T14:59:23.612Z,26.70
2023-05-20T15:02:31.462Z,26.65
2023-05-20T15:05:36.532Z,26.53
2023-05-20T15:08:43.135Z,26.54
2023-05-20T15:11:49.722Z,26.70
2023-05-20T15:14:56.866Z,27.09
2023-05-20T15:18:03.388Z,27.44
2023-05-20T15:21:09.966Z,27.54
2023-05-20T15:24:14.991Z,27.47
2023-05-20T15:27:20.790Z,27.45
2023-05-20T15:30:29.368Z,27.51
2023-05-20T15:33:35.811Z,27.52
2023-05-20T15:36:45.004Z,27.81
2023-05-20T15:39:54.147Z,28.00
2023-05-20T15:43:00.049Z,27.54
2023-05-20T15:46:06.372Z,27.13
2023-05-20T15:49:11.650Z,26.99
2023-05-20T15:52:18.112Z,26.85
2023-05-20T15:55:25.035Z,26.86
2023-05-20T15:58:31.567Z,26.91
2023-05-20T16:01:39.673Z,26.87
2023-05-20T16:04:45.258Z,26.82
2023-05-20T16:07:53.026Z,26.87
2023-05-20T16:10:59.220Z,26.98
2023-05-20T16:14:05.584Z,27.19
2023-05-20T16:17:11.999Z,27.02
2023-05-20T16:20:19.575Z,26.97
2023-05-20T16:23:27.082Z,26.95
2023-05-20T16:26:33.733Z,26.89
2023-05-20T16:29:39.829Z,26.75
2023-05-20T16:32:45.494Z,26.63
2023-05-20T16:35:52.185Z,26.45
2023-05-20T16:38:58.935Z,26.27
2023-05-20T16:45:10.312Z,25.96
2023-05-20T16:48:16.300Z,25.79
2023-05-20T16:51:20.632Z,25.62
2023-05-20T16:54:27.898Z,25.44
2023-05-20T16:57:33.196Z,25.28
2023-05-20T17:00:39.546Z,25.16
2023-05-20T17:03:49.040Z,25.01
2023-05-20T17:07:00.128Z,24.83
2023-05-20T17:10:06.459Z,24.60
2023-05-20T17:13:13.408Z,24.39
2023-05-20T17:16:19.507Z,24.26
2023-05-20T17:19:26.126Z,24.13
2023-05-20T17:22:32.835Z,23.98
2023-05-20T17:25:39.305Z,23.81
2023-05-20T17:28:44.867Z,23.67
2023-05-20T17:31:51.365Z,23.46
2023-05-20T17:34:58.230Z,23.28
2023-05-20T17:38:05.003Z,23.07
2023-05-20T17:41:11.095Z,22.91
2023-05-20T17:44:17.836Z,22.79
2023-05-20T17:47:23.859Z,22.66
2023-05-20T17:50:30.222Z,22.49
2023-05-20T17:53:36.204Z,22.39
2023-05-20T17:56:41.502Z,22.28
2023-05-20T17:59:49.877Z,22.17
2023-05-20T18:02:56.461Z,22.04
2023-05-20T18:06:04.722Z,21.89
2023-05-20T18:09:12.602Z,21.76
2023-05-20T18:12:18.278Z,21.64
2023-05-20T18:15:26.106Z,21.55
2023-05-20T18:18:31.045Z,21.46
2023-05-20T18:21:38.202Z,21.37
2023-05-20T18:24:45.056Z,21.28
2023-05-20T18:27:51.660Z,21.22
2023-05-20T18:30:57.408Z,21.11
2023-05-20T18:34:02.745Z,21.02
2023-05-20T18:37:10.111Z,20.95
2023-05-20T18:40:16.797Z,20.87
2023-05-20T18:43:22.989Z,20.78
2023-05-20T18:46:28.752Z,20.70
2023-05-20T18:49:34.295Z,20.63
2023-05-20T18:52:39.935Z,20.56
2023-05-20T18:55:45.432Z,20.48
2023-05-20T18:58:50.859Z,20.41
2023-05-20T19:01:58.981Z,20.34
2023-05-20T19:05:07.240Z,20.27
2023-05-20T19:08:14.248Z,20.21
2023-05-20T19:11:19.950Z,20.14
2023-05-20T19:14:25.944Z,20.08
2023-05-20T19:17:34.444Z,20.02
2023-05-20T19:20:41.902Z,19.95
2023-05-20T19:23:49.509Z,19.89
2023-05-20T19:26:55.146Z,19.80
2023-05-20T19:30:00.564Z,19.72
2023-05-20T19:33:07.365Z,19.67
2023-05-20T19:36:12.501Z,19.62
2023-05-20T19:39:18.222Z,19.55
2023-05-20T19:42:23.983Z,19.51
2023-05-20T19:45:30.293Z,19.47
2023-05-20T19:48:36.349Z,19.42
2023-05-20T19:51:41.377Z,19.34
2023-05-20T19:54:49.024Z,19.30
2023-05-20T19:57:58.484Z,19.24
2023-05-20T20:01:04.228Z,19.19
2023-05-20T20:04:10.211Z,19.14
2023-05-20T20:07:16.046Z,19.08
2023-05-20T20:10:22.238Z,19.04
2023-05-20T20:13:27.101Z,19.02
2023-05-20T20:16:34.547Z,18.98
2023-05-20T20:19:40.268Z,18.92
2023-05-20T20:22:45.207Z,18.87
2023-05-20T20:25:54.616Z,18.79
2023-05-20T20:29:01.178Z,18.73
2023-05-20T20:32:07.154Z,18.65
2023-05-20T20:35:12.713Z,18.59
2023-05-20T20:38:19.238Z,18.52
2023-05-20T20:41:25.039Z,18.48
2023-05-20T20:44:36.420Z,18.42
2023-05-20T20:47:44.448Z,18.36
2023-05-20T20:50:50.786Z,18.30
2023-05-20T20:53:56.141Z,18.25
2023-05-20T20:57:04.255Z,18.21
2023-05-20T21:00:11.892Z,18.15
2023-05-20T21:03:20.744Z,18.11
2023-05-20T21:06:28.579Z,18.06
2023-05-20T21:09:34.452Z,18.01
2023-05-20T21:12:41.055Z,17.95
2023-05-20T21:15:46.671Z,17.89
2023-05-20T21:18:52.920Z,17.84
2023-05-20T21:21:59.279Z,17.78
2023-05-20T21:25:05.360Z,17.72
2023-05-20T21:28:10.697Z,17.67
2023-05-20T21:31:16.764Z,17.62
2023-05-20T21:34:22.847Z,17.58
2023-05-20T21:37:29.935Z,17.55
2023-05-20T21:40:35.899Z,17.52
2023-05-20T21:43:43.138Z,17.48
2023-05-20T21:46:50.361Z,17.44
2023-05-20T21:49:55.668Z,17.37
2023-05-20T21:53:03.081Z,17.30
2023-05-20T21:56:08.352Z,17.22
2023-05-20T21:59:15.810Z,17.13
2023-05-20T22:02:22.127Z,17.08
2023-05-20T22:05:28.561Z,17.02
2023-05-20T22:08:37.776Z,16.93
2023-05-20T22:11:44.869Z,16.86
2023-05-20T22:14:50.823Z,16.74
2023-05-20T22:17:57.756Z,16.68
2023-05-20T22:21:05.517Z,16.59
2023-05-20T22:24:10.426Z,16.55
2023-05-20T22:27:16.200Z,16.48
2023-05-20T22:30:23.842Z,16.41
2023-05-20T22:33:31.471Z,16.36
2023-05-20T22:36:38.850Z,16.31
2023-05-20T22:39:44.366Z,16.24
2023-05-20T22:42:50.650Z,16.18
2023-05-20T22:45:56.966Z,16.13
2023-05-20T22:49:04.844Z,16.05
2023-05-20T22:52:10.721Z,16.02
2023-05-20T22:55:16.560Z,15.97
2023-05-20T22:58:24.739Z,15.92
2023-05-20T23:01:31.373Z,15.84
2023-05-20T23:04:37.067Z,15.78
2023-05-20T23:07:43.358Z,15.72
2023-05-20T23:10:48.736Z,15.68
2023-05-20T23:13:55.002Z,15.61
2023-05-20T23:17:02.016Z,15.55
2023-05-20T23:20:08.352Z,15.50
2023-05-20T23:23:15.437Z,15.46
2023-05-20T23:26:22.148Z,15.43
2023-05-20T23:29:27.799Z,15.42
2023-05-20T23:32:32.939Z,15.41
2023-05-20T23:35:39.771Z,15.38
2023-05-20T23:38:46.860Z,15.36
2023-05-20T23:41:55.478Z,15.31
2023-05-20T23:45:01.633Z,15.31
2023-05-20T23:48:08.033Z,15.32
2023-05-20T23:51:17.205Z,15.34
2023-05-20T23:54:22.862Z,15.35
2023-05-20T23:57:29.336Z,15.35
